sensor_id;sensor_type;location;lat;lon;timestamp;noise_LAeq;noise_LA_min;noise_LA_max;noise_LA01;noise_LA95
68945;Laerm;55984;48.790;8.990;2023-04-03T00:01:34;32.56;31.14;35.16;;
68945;Laerm;55984;48.790;8.990;2023-04-03T00:04:00;33.91;31.11;46.80;;
68945;Laerm;55984;48.790;8.990;2023-04-03T00:06:27;32.06;30.07;34.67;;
68945;Laerm;55984;48.790;8.990;2023-04-03T00:08:53;32.37;31.01;34.03;;
68945;Laerm;55984;48.790;8.990;2023-04-03T00:11:19;32.86;30.84;35.80;;
68945;Laerm;55984;48.790;8.990;2023-04-03T00:13:45;32.18;30.26;35.51;;
68945;Laerm;55984;48.790;8.990;2023-04-03T00:16:12;33.04;31.28;38.23;;
68945;Laerm;55984;48.790;8.990;2023-04-03T00:18:39;32.72;30.91;37.93;;
68945;Laerm;55984;48.790;8.990;2023-04-03T00:21:06;32.49;30.53;34.92;;
68945;Laerm;55984;48.790;8.990;2023-04-03T00:23:49;32.33;30.40;39.04;;
68945;Laerm;55984;48.790;8.990;2023-04-03T00:26:17;32.73;30.08;34.95;;
68945;Laerm;55984;48.790;8.990;2023-04-03T00:28:43;32.93;31.14;35.47;;
68945;Laerm;55984;48.790;8.990;2023-04-03T00:31:09;32.34;30.47;35.84;;
68945;Laerm;55984;48.790;8.990;2023-04-03T00:33:36;32.24;30.13;34.12;;
68945;Laerm;55984;48.790;8.990;2023-04-03T00:36:12;32.61;30.79;44.72;;
68945;Laerm;55984;48.790;8.990;2023-04-03T00:38:40;32.56;31.07;36.47;;
68945;Laerm;55984;48.790;8.990;2023-04-03T00:41:06;32.07;30.42;33.93;;
68945;Laerm;55984;48.790;8.990;2023-04-03T00:43:33;33.09;31.05;35.82;;
68945;Laerm;55984;48.790;8.990;2023-04-03T00:46:02;32.54;30.16;35.25;;
68945;Laerm;55984;48.790;8.990;2023-04-03T00:48:55;33.21;30.85;36.20;;
68945;Laerm;55984;48.790;8.990;2023-04-03T00:51:26;31.99;30.36;34.37;;
68945;Laerm;55984;48.790;8.990;2023-04-03T00:53:58;32.58;30.82;36.55;;
68945;Laerm;55984;48.790;8.990;2023-04-03T00:56:27;33.23;31.83;38.38;;
68945;Laerm;55984;48.790;8.990;2023-04-03T00:59:08;32.97;31.05;34.99;;
68945;Laerm;55984;48.790;8.990;2023-04-03T01:01:59;32.87;31.07;35.35;;
68945;Laerm;55984;48.790;8.990;2023-04-03T01:04:35;34.04;31.53;40.74;;
68945;Laerm;55984;48.790;8.990;2023-04-03T01:07:05;32.95;31.19;36.17;;
68945;Laerm;55984;48.790;8.990;2023-04-03T01:09:36;33.45;31.43;35.74;;
68945;Laerm;55984;48.790;8.990;2023-04-03T01:12:27;32.46;30.93;34.64;;
68945;Laerm;55984;48.790;8.990;2023-04-03T01:17:48;34.99;30.86;49.75;;
68945;Laerm;55984;48.790;8.990;2023-04-03T01:25:50;33.15;31.12;36.26;;
68945;Laerm;55984;48.790;8.990;2023-04-03T01:28:35;33.08;30.64;35.92;;
68945;Laerm;55984;48.790;8.990;2023-04-03T01:33:40;33.44;31.64;35.34;;
68945;Laerm;55984;48.790;8.990;2023-04-03T01:36:29;32.73;30.63;34.78;;
68945;Laerm;55984;48.790;8.990;2023-04-03T01:38:57;33.50;32.03;36.05;;
68945;Laerm;55984;48.790;8.990;2023-04-03T01:41:25;33.05;31.60;35.50;;
68945;Laerm;55984;48.790;8.990;2023-04-03T01:47:05;33.60;31.30;36.14;;
68945;Laerm;55984;48.790;8.990;2023-04-03T01:49:32;33.96;32.26;36.02;;
68945;Laerm;55984;48.790;8.990;2023-04-03T01:51:58;34.02;32.37;37.22;;
68945;Laerm;55984;48.790;8.990;2023-04-03T01:54:24;34.03;32.15;37.25;;
68945;Laerm;55984;48.790;8.990;2023-04-03T01:56:53;34.08;32.33;36.45;;
68945;Laerm;55984;48.790;8.990;2023-04-03T01:59:22;32.90;31.32;38.05;;
68945;Laerm;55984;48.790;8.990;2023-04-03T02:01:48;32.89;30.52;38.31;;
68945;Laerm;55984;48.790;8.990;2023-04-03T02:04:14;33.74;31.87;41.59;;
68945;Laerm;55984;48.790;8.990;2023-04-03T02:06:40;33.72;31.94;35.66;;
68945;Laerm;55984;48.790;8.990;2023-04-03T02:09:06;33.49;31.74;35.64;;
68945;Laerm;55984;48.790;8.990;2023-04-03T02:11:32;33.77;31.88;36.89;;
68945;Laerm;55984;48.790;8.990;2023-04-03T02:13:59;34.28;31.93;37.74;;
68945;Laerm;55984;48.790;8.990;2023-04-03T02:16:36;33.51;31.48;35.79;;
68945;Laerm;55984;48.790;8.990;2023-04-03T02:19:10;34.04;32.20;36.31;;
68945;Laerm;55984;48.790;8.990;2023-04-03T02:21:37;34.09;31.87;36.44;;
68945;Laerm;55984;48.790;8.990;2023-04-03T02:24:22;34.08;32.57;36.66;;
68945;Laerm;55984;48.790;8.990;2023-04-03T02:26:48;33.73;32.00;36.16;;
68945;Laerm;55984;48.790;8.990;2023-04-03T02:29:19;34.22;32.22;37.34;;
68945;Laerm;55984;48.790;8.990;2023-04-03T02:31:45;33.46;31.58;36.87;;
68945;Laerm;55984;48.790;8.990;2023-04-03T02:34:11;33.42;31.83;35.78;;
68945;Laerm;55984;48.790;8.990;2023-04-03T02:36:37;34.12;32.27;36.19;;
68945;Laerm;55984;48.790;8.990;2023-04-03T02:39:04;34.44;32.97;36.38;;
68945;Laerm;55984;48.790;8.990;2023-04-03T02:41:30;34.32;32.68;36.95;;
68945;Laerm;55984;48.790;8.990;2023-04-03T02:44:04;35.01;33.30;37.25;;
68945;Laerm;55984;48.790;8.990;2023-04-03T02:46:31;34.76;32.93;38.27;;
68945;Laerm;55984;48.790;8.990;2023-04-03T02:48:57;35.13;32.80;40.17;;
68945;Laerm;55984;48.790;8.990;2023-04-03T02:51:23;34.54;32.90;36.86;;
68945;Laerm;55984;48.790;8.990;2023-04-03T02:53:51;34.31;32.46;36.43;;
68945;Laerm;55984;48.790;8.990;2023-04-03T02:56:17;35.36;33.75;38.15;;
68945;Laerm;55984;48.790;8.990;2023-04-03T02:58:46;36.20;34.10;39.65;;
68945;Laerm;55984;48.790;8.990;2023-04-03T03:01:13;35.63;34.09;37.85;;
68945;Laerm;55984;48.790;8.990;2023-04-03T03:03:39;35.41;33.74;37.19;;
68945;Laerm;55984;48.790;8.990;2023-04-03T03:06:11;35.42;33.39;36.97;;
68945;Laerm;55984;48.790;8.990;2023-04-03T03:08:38;35.13;33.75;36.80;;
68945;Laerm;55984;48.790;8.990;2023-04-03T03:11:08;35.79;33.44;38.00;;
68945;Laerm;55984;48.790;8.990;2023-04-03T03:13:35;37.20;34.70;50.43;;
68945;Laerm;55984;48.790;8.990;2023-04-03T03:16:05;36.16;34.23;38.79;;
68945;Laerm;55984;48.790;8.990;2023-04-03T03:18:32;38.68;35.07;49.44;;
68945;Laerm;55984;48.790;8.990;2023-04-03T03:20:59;38.00;35.22;49.07;;
68945;Laerm;55984;48.790;8.990;2023-04-03T03:23:27;37.66;35.26;39.34;;
68945;Laerm;55984;48.790;8.990;2023-04-03T03:25:55;38.49;35.55;51.21;;
68945;Laerm;55984;48.790;8.990;2023-04-03T03:28:22;38.28;35.68;47.54;;
68945;Laerm;55984;48.790;8.990;2023-04-03T03:30:49;38.99;35.62;49.48;;
68945;Laerm;55984;48.790;8.990;2023-04-03T03:33:17;37.56;35.38;43.77;;
68945;Laerm;55984;48.790;8.990;2023-04-03T03:35:43;39.38;35.60;55.18;;
68945;Laerm;55984;48.790;8.990;2023-04-03T03:38:10;37.89;36.10;42.93;;
68945;Laerm;55984;48.790;8.990;2023-04-03T03:40:37;39.03;35.70;52.20;;
68945;Laerm;55984;48.790;8.990;2023-04-03T03:43:03;38.50;35.36;48.04;;
68945;Laerm;55984;48.790;8.990;2023-04-03T03:45:32;37.84;36.11;39.96;;
68945;Laerm;55984;48.790;8.990;2023-04-03T03:47:59;37.61;35.67;44.47;;
68945;Laerm;55984;48.790;8.990;2023-04-03T03:50:25;38.23;36.16;41.77;;
68945;Laerm;55984;48.790;8.990;2023-04-03T03:52:51;40.20;35.59;51.55;;
68945;Laerm;55984;48.790;8.990;2023-04-03T03:55:17;41.31;35.93;53.20;;
68945;Laerm;55984;48.790;8.990;2023-04-03T03:57:42;41.80;35.79;54.98;;
68945;Laerm;55984;48.790;8.990;2023-04-03T04:00:09;44.20;36.51;54.63;;
68945;Laerm;55984;48.790;8.990;2023-04-03T04:02:36;42.03;36.10;53.59;;
68945;Laerm;55984;48.790;8.990;2023-04-03T04:05:02;42.51;36.30;53.63;;
68945;Laerm;55984;48.790;8.990;2023-04-03T04:07:28;42.71;37.01;53.98;;
68945;Laerm;55984;48.790;8.990;2023-04-03T04:09:54;45.31;36.92;60.17;;
68945;Laerm;55984;48.790;8.990;2023-04-03T04:12:20;41.74;37.22;54.78;;
68945;Laerm;55984;48.790;8.990;2023-04-03T04:14:47;44.16;38.19;54.43;;
68945;Laerm;55984;48.790;8.990;2023-04-03T04:17:13;48.97;38.52;63.84;;
68945;Laerm;55984;48.790;8.990;2023-04-03T04:19:39;55.15;38.13;69.09;;
68945;Laerm;55984;48.790;8.990;2023-04-03T04:22:06;54.36;38.17;68.51;;
68945;Laerm;55984;48.790;8.990;2023-04-03T04:24:32;53.94;38.14;67.96;;
68945;Laerm;55984;48.790;8.990;2023-04-03T04:26:58;53.29;39.30;67.22;;
68945;Laerm;55984;48.790;8.990;2023-04-03T04:29:24;52.67;38.93;64.36;;
68945;Laerm;55984;48.790;8.990;2023-04-03T04:31:50;51.84;38.49;64.42;;
68945;Laerm;55984;48.790;8.990;2023-04-03T04:34:16;50.81;38.78;64.06;;
68945;Laerm;55984;48.790;8.990;2023-04-03T04:36:42;48.33;38.79;60.64;;
68945;Laerm;55984;48.790;8.990;2023-04-03T04:39:08;46.84;38.25;59.18;;
68945;Laerm;55984;48.790;8.990;2023-04-03T04:41:33;46.84;39.12;59.11;;
68945;Laerm;55984;48.790;8.990;2023-04-03T04:44:00;44.20;38.35;57.09;;
68945;Laerm;55984;48.790;8.990;2023-04-03T04:46:26;41.29;38.28;53.42;;
68945;Laerm;55984;48.790;8.990;2023-04-03T04:48:52;44.47;38.44;57.12;;
68945;Laerm;55984;48.790;8.990;2023-04-03T04:51:18;43.20;38.15;57.06;;
68945;Laerm;55984;48.790;8.990;2023-04-03T04:53:44;42.18;38.87;51.95;;
68945;Laerm;55984;48.790;8.990;2023-04-03T04:56:10;42.21;38.85;56.21;;
68945;Laerm;55984;48.790;8.990;2023-04-03T04:58:36;43.87;38.15;61.21;;
68945;Laerm;55984;48.790;8.990;2023-04-03T05:01:06;47.80;38.13;64.60;;
68945;Laerm;55984;48.790;8.990;2023-04-03T05:03:32;41.93;38.47;56.41;;
68945;Laerm;55984;48.790;8.990;2023-04-03T05:06:20;41.76;38.42;50.87;;
68945;Laerm;55984;48.790;8.990;2023-04-03T05:11:37;56.57;39.86;75.66;;
68945;Laerm;55984;48.790;8.990;2023-04-03T05:14:06;44.72;40.74;53.04;;
68945;Laerm;55984;48.790;8.990;2023-04-03T05:16:33;58.92;40.90;76.78;;
68945;Laerm;55984;48.790;8.990;2023-04-03T05:18:59;47.95;41.65;68.49;;
68945;Laerm;55984;48.790;8.990;2023-04-03T05:21:25;45.32;39.10;61.56;;
68945;Laerm;55984;48.790;8.990;2023-04-03T05:23:53;40.69;38.35;50.46;;
68945;Laerm;55984;48.790;8.990;2023-04-03T05:26:18;41.30;38.44;49.86;;
68945;Laerm;55984;48.790;8.990;2023-04-03T05:28:46;47.26;37.93;60.99;;
68945;Laerm;55984;48.790;8.990;2023-04-03T05:31:12;52.61;38.21;65.60;;
68945;Laerm;55984;48.790;8.990;2023-04-03T05:33:38;48.34;38.22;63.97;;
68945;Laerm;55984;48.790;8.990;2023-04-03T05:36:05;43.04;37.47;65.12;;
68945;Laerm;55984;48.790;8.990;2023-04-03T05:38:31;43.43;37.77;56.74;;
68945;Laerm;55984;48.790;8.990;2023-04-03T05:40:57;46.67;37.34;64.58;;
68945;Laerm;55984;48.790;8.990;2023-04-03T05:43:23;46.95;36.49;64.24;;
68945;Laerm;55984;48.790;8.990;2023-04-03T05:45:50;44.78;36.62;58.72;;
68945;Laerm;55984;48.790;8.990;2023-04-03T05:48:16;41.30;36.85;53.64;;
68945;Laerm;55984;48.790;8.990;2023-04-03T05:50:42;44.44;37.82;60.29;;
68945;Laerm;55984;48.790;8.990;2023-04-03T05:53:35;44.86;37.64;58.08;;
68945;Laerm;55984;48.790;8.990;2023-04-03T05:56:03;46.53;37.51;57.88;;
68945;Laerm;55984;48.790;8.990;2023-04-03T05:58:29;48.25;36.48;58.49;;
68945;Laerm;55984;48.790;8.990;2023-04-03T06:00:54;48.39;37.69;59.22;;
68945;Laerm;55984;48.790;8.990;2023-04-03T06:03:20;46.78;36.70;66.99;;
68945;Laerm;55984;48.790;8.990;2023-04-03T06:05:46;42.00;37.60;54.07;;
68945;Laerm;55984;48.790;8.990;2023-04-03T06:08:12;44.28;36.73;61.80;;
68945;Laerm;55984;48.790;8.990;2023-04-03T06:10:40;41.80;36.68;56.06;;
68945;Laerm;55984;48.790;8.990;2023-04-03T06:13:06;45.21;37.11;56.04;;
68945;Laerm;55984;48.790;8.990;2023-04-03T06:15:32;43.20;37.10;59.70;;
68945;Laerm;55984;48.790;8.990;2023-04-03T06:17:59;41.86;37.56;52.56;;
68945;Laerm;55984;48.790;8.990;2023-04-03T06:20:25;40.94;36.73;50.43;;
68945;Laerm;55984;48.790;8.990;2023-04-03T06:22:50;43.60;36.67;63.73;;
68945;Laerm;55984;48.790;8.990;2023-04-03T06:25:16;45.31;36.90;70.75;;
68945;Laerm;55984;48.790;8.990;2023-04-03T06:27:44;43.28;37.73;55.49;;
68945;Laerm;55984;48.790;8.990;2023-04-03T06:30:10;47.24;37.22;61.64;;
68945;Laerm;55984;48.790;8.990;2023-04-03T06:32:37;39.82;36.99;49.16;;
68945;Laerm;55984;48.790;8.990;2023-04-03T06:35:04;41.77;37.14;56.40;;
68945;Laerm;55984;48.790;8.990;2023-04-03T06:37:33;46.31;37.82;61.41;;
68945;Laerm;55984;48.790;8.990;2023-04-03T06:39:59;45.21;37.08;61.88;;
68945;Laerm;55984;48.790;8.990;2023-04-03T06:42:25;39.84;37.00;47.07;;
68945;Laerm;55984;48.790;8.990;2023-04-03T06:44:51;44.42;36.79;57.51;;
68945;Laerm;55984;48.790;8.990;2023-04-03T06:47:18;39.63;36.79;46.17;;
68945;Laerm;55984;48.790;8.990;2023-04-03T06:49:44;42.41;37.01;59.91;;
68945;Laerm;55984;48.790;8.990;2023-04-03T06:52:10;42.68;37.24;54.83;;
68945;Laerm;55984;48.790;8.990;2023-04-03T06:54:37;48.39;36.93;64.37;;
68945;Laerm;55984;48.790;8.990;2023-04-03T06:57:03;42.99;37.42;58.86;;
68945;Laerm;55984;48.790;8.990;2023-04-03T06:59:29;50.86;37.29;69.47;;
68945;Laerm;55984;48.790;8.990;2023-04-03T07:01:56;45.97;37.37;63.87;;
68945;Laerm;55984;48.790;8.990;2023-04-03T07:04:23;41.09;36.26;57.87;;
68945;Laerm;55984;48.790;8.990;2023-04-03T07:06:49;42.31;37.49;58.44;;
68945;Laerm;55984;48.790;8.990;2023-04-03T07:09:15;45.23;37.83;59.94;;
68945;Laerm;55984;48.790;8.990;2023-04-03T07:11:41;47.32;38.63;64.40;;
68945;Laerm;55984;48.790;8.990;2023-04-03T07:14:07;43.76;37.78;58.15;;
68945;Laerm;55984;48.790;8.990;2023-04-03T07:16:34;47.33;37.89;63.44;;
68945;Laerm;55984;48.790;8.990;2023-04-03T07:19:01;41.69;38.30;55.20;;
68945;Laerm;55984;48.790;8.990;2023-04-03T07:21:27;41.54;38.08;51.17;;
68945;Laerm;55984;48.790;8.990;2023-04-03T07:23:54;41.33;37.91;55.04;;
68945;Laerm;55984;48.790;8.990;2023-04-03T07:26:21;41.20;37.91;51.62;;
68945;Laerm;55984;48.790;8.990;2023-04-03T07:28:47;43.38;38.32;47.41;;
68945;Laerm;55984;48.790;8.990;2023-04-03T07:31:15;43.71;38.19;54.14;;
68945;Laerm;55984;48.790;8.990;2023-04-03T07:33:43;44.28;38.38;54.71;;
68945;Laerm;55984;48.790;8.990;2023-04-03T07:36:11;45.41;38.40;56.29;;
68945;Laerm;55984;48.790;8.990;2023-04-03T07:38:39;45.53;37.47;65.62;;
68945;Laerm;55984;48.790;8.990;2023-04-03T07:41:05;43.92;37.47;53.60;;
68945;Laerm;55984;48.790;8.990;2023-04-03T07:43:31;45.49;37.79;60.13;;
68945;Laerm;55984;48.790;8.990;2023-04-03T07:45:59;42.73;38.63;51.42;;
68945;Laerm;55984;48.790;8.990;2023-04-03T07:48:26;43.08;37.09;51.73;;
68945;Laerm;55984;48.790;8.990;2023-04-03T07:50:52;43.06;37.58;55.34;;
68945;Laerm;55984;48.790;8.990;2023-04-03T07:53:18;42.36;37.46;53.22;;
68945;Laerm;55984;48.790;8.990;2023-04-03T07:55:48;46.07;37.54;63.25;;
68945;Laerm;55984;48.790;8.990;2023-04-03T07:58:16;47.01;38.07;62.41;;
68945;Laerm;55984;48.790;8.990;2023-04-03T08:00:43;48.10;38.65;64.91;;
68945;Laerm;55984;48.790;8.990;2023-04-03T08:03:10;43.57;37.32;55.02;;
68945;Laerm;55984;48.790;8.990;2023-04-03T08:05:43;42.29;37.33;52.99;;
68945;Laerm;55984;48.790;8.990;2023-04-03T08:08:11;39.61;37.03;52.10;;
68945;Laerm;55984;48.790;8.990;2023-04-03T08:10:37;40.81;37.64;54.05;;
68945;Laerm;55984;48.790;8.990;2023-04-03T08:13:04;41.58;37.85;52.43;;
68945;Laerm;55984;48.790;8.990;2023-04-03T08:15:30;40.16;38.02;48.48;;
68945;Laerm;55984;48.790;8.990;2023-04-03T08:17:57;48.92;38.51;65.81;;
68945;Laerm;55984;48.790;8.990;2023-04-03T08:20:23;49.77;37.08;66.26;;
68945;Laerm;55984;48.790;8.990;2023-04-03T08:22:49;49.31;37.88;65.92;;
68945;Laerm;55984;48.790;8.990;2023-04-03T08:25:15;44.56;38.21;67.59;;
68945;Laerm;55984;48.790;8.990;2023-04-03T08:27:42;43.38;37.99;56.53;;
68945;Laerm;55984;48.790;8.990;2023-04-03T08:30:08;47.67;38.01;62.32;;
68945;Laerm;55984;48.790;8.990;2023-04-03T08:32:36;43.58;37.50;57.48;;
68945;Laerm;55984;48.790;8.990;2023-04-03T08:35:03;44.87;37.67;63.00;;
68945;Laerm;55984;48.790;8.990;2023-04-03T08:37:29;40.30;37.49;52.56;;
68945;Laerm;55984;48.790;8.990;2023-04-03T08:39:56;39.73;37.60;45.90;;
68945;Laerm;55984;48.790;8.990;2023-04-03T08:48:04;43.73;36.70;57.25;;
68945;Laerm;55984;48.790;8.990;2023-04-03T08:50:43;42.33;36.77;62.61;;
68945;Laerm;55984;48.790;8.990;2023-04-03T08:53:23;40.22;36.48;51.56;;
68945;Laerm;55984;48.790;8.990;2023-04-03T08:55:52;39.51;36.44;52.03;;
68945;Laerm;55984;48.790;8.990;2023-04-03T08:58:24;44.91;37.16;62.37;;
68945;Laerm;55984;48.790;8.990;2023-04-03T09:00:56;40.07;36.15;51.01;;
68945;Laerm;55984;48.790;8.990;2023-04-03T09:03:23;39.59;36.01;52.95;;
68945;Laerm;55984;48.790;8.990;2023-04-03T09:05:57;39.65;36.00;56.16;;
68945;Laerm;55984;48.790;8.990;2023-04-03T09:08:33;44.64;37.09;69.63;;
68945;Laerm;55984;48.790;8.990;2023-04-03T09:13:57;45.12;36.59;67.51;;
68945;Laerm;55984;48.790;8.990;2023-04-03T09:16:43;40.62;36.86;51.82;;
68945;Laerm;55984;48.790;8.990;2023-04-03T09:19:23;40.67;36.94;50.77;;
68945;Laerm;55984;48.790;8.990;2023-04-03T09:21:56;40.65;37.12;48.69;;
68945;Laerm;55984;48.790;8.990;2023-04-03T09:24:23;42.27;37.56;55.00;;
68945;Laerm;55984;48.790;8.990;2023-04-03T09:27:03;42.51;36.82;55.71;;
68945;Laerm;55984;48.790;8.990;2023-04-03T09:29:30;55.99;37.87;75.15;;
68945;Laerm;55984;48.790;8.990;2023-04-03T09:32:01;48.16;39.73;67.59;;
68945;Laerm;55984;48.790;8.990;2023-04-03T09:34:38;46.04;37.14;59.22;;
68945;Laerm;55984;48.790;8.990;2023-04-03T09:37:07;41.80;36.10;53.89;;
68945;Laerm;55984;48.790;8.990;2023-04-03T09:39:52;39.17;36.64;51.61;;
68945;Laerm;55984;48.790;8.990;2023-04-03T09:42:23;49.67;37.16;69.76;;
68945;Laerm;55984;48.790;8.990;2023-04-03T09:44:55;45.74;37.73;64.94;;
68945;Laerm;55984;48.790;8.990;2023-04-03T09:47:34;41.42;37.60;58.22;;
68945;Laerm;55984;48.790;8.990;2023-04-03T09:52:40;45.07;37.48;60.04;;
68945;Laerm;55984;48.790;8.990;2023-04-03T09:55:23;42.34;36.61;56.80;;
68945;Laerm;55984;48.790;8.990;2023-04-03T09:57:57;39.94;36.26;50.78;;
68945;Laerm;55984;48.790;8.990;2023-04-03T10:00:33;40.28;37.24;51.45;;
68945;Laerm;55984;48.790;8.990;2023-04-03T10:03:00;41.15;36.81;56.58;;
68945;Laerm;55984;48.790;8.990;2023-04-03T10:05:40;44.04;38.16;63.27;;
68945;Laerm;55984;48.790;8.990;2023-04-03T10:08:20;45.80;38.24;58.64;;
68945;Laerm;55984;48.790;8.990;2023-04-03T10:11:05;42.41;37.87;55.30;;
68945;Laerm;55984;48.790;8.990;2023-04-03T10:13:33;41.85;37.10;55.33;;
68945;Laerm;55984;48.790;8.990;2023-04-03T10:16:03;42.03;37.43;58.59;;
68945;Laerm;55984;48.790;8.990;2023-04-03T10:21:09;39.20;35.69;52.83;;
68945;Laerm;55984;48.790;8.990;2023-04-03T10:23:44;44.36;37.48;60.18;;
68945;Laerm;55984;48.790;8.990;2023-04-03T10:26:34;43.59;37.81;57.79;;
68945;Laerm;55984;48.790;8.990;2023-04-03T10:29:19;44.52;36.04;59.58;;
68945;Laerm;55984;48.790;8.990;2023-04-03T10:31:53;42.25;36.58;54.06;;
68945;Laerm;55984;48.790;8.990;2023-04-03T10:34:32;47.30;36.74;66.21;;
68945;Laerm;55984;48.790;8.990;2023-04-03T10:42:39;42.20;36.21;54.84;;
68945;Laerm;55984;48.790;8.990;2023-04-03T10:56:25;43.03;36.45;61.79;;
68945;Laerm;55984;48.790;8.990;2023-04-03T11:02:19;46.28;37.21;59.52;;
68945;Laerm;55984;48.790;8.990;2023-04-03T11:04:55;41.98;36.79;53.81;;
68945;Laerm;55984;48.790;8.990;2023-04-03T11:07:38;42.60;36.02;54.95;;
68945;Laerm;55984;48.790;8.990;2023-04-03T11:10:28;41.98;35.58;56.86;;
68945;Laerm;55984;48.790;8.990;2023-04-03T11:13:02;45.40;36.80;64.30;;
68945;Laerm;55984;48.790;8.990;2023-04-03T11:15:33;44.18;37.12;55.23;;
68945;Laerm;55984;48.790;8.990;2023-04-03T11:18:32;46.83;37.94;60.81;;
68945;Laerm;55984;48.790;8.990;2023-04-03T11:21:22;45.26;38.01;62.34;;
68945;Laerm;55984;48.790;8.990;2023-04-03T11:23:50;48.52;36.76;77.38;;
68945;Laerm;55984;48.790;8.990;2023-04-03T11:26:19;43.76;36.19;59.50;;
68945;Laerm;55984;48.790;8.990;2023-04-03T11:28:46;40.09;35.90;54.75;;
68945;Laerm;55984;48.790;8.990;2023-04-03T11:34:00;40.91;38.41;47.00;;
68945;Laerm;55984;48.790;8.990;2023-04-03T11:36:31;43.25;37.40;56.67;;
68945;Laerm;55984;48.790;8.990;2023-04-03T11:39:06;45.66;36.01;63.50;;
68945;Laerm;55984;48.790;8.990;2023-04-03T11:41:33;39.48;36.28;53.81;;
68945;Laerm;55984;48.790;8.990;2023-04-03T11:46:58;53.20;36.30;75.20;;
68945;Laerm;55984;48.790;8.990;2023-04-03T11:50:03;49.42;36.75;65.90;;
68945;Laerm;55984;48.790;8.990;2023-04-03T12:01:02;43.87;36.41;56.86;;
68945;Laerm;55984;48.790;8.990;2023-04-03T12:08:43;42.93;37.90;62.67;;
68945;Laerm;55984;48.790;8.990;2023-04-03T12:13:38;44.04;36.68;58.41;;
68945;Laerm;55984;48.790;8.990;2023-04-03T12:16:29;44.04;39.45;53.37;;
68945;Laerm;55984;48.790;8.990;2023-04-03T12:32:22;45.96;36.76;62.84;;
68945;Laerm;55984;48.790;8.990;2023-04-03T12:43:17;41.08;36.41;54.22;;
68945;Laerm;55984;48.790;8.990;2023-04-03T12:46:04;43.15;36.10;61.92;;
68945;Laerm;55984;48.790;8.990;2023-04-03T12:48:38;65.83;35.95;92.75;;
68945;Laerm;55984;48.790;8.990;2023-04-03T12:51:05;47.79;36.47;63.45;;
68945;Laerm;55984;48.790;8.990;2023-04-03T12:53:33;41.17;35.17;51.54;;
68945;Laerm;55984;48.790;8.990;2023-04-03T12:56:23;43.77;36.19;64.00;;
68945;Laerm;55984;48.790;8.990;2023-04-03T12:58:52;45.72;35.30;73.52;;
68945;Laerm;55984;48.790;8.990;2023-04-03T13:01:24;41.52;35.14;54.80;;
68945;Laerm;55984;48.790;8.990;2023-04-03T13:03:54;40.61;35.57;51.54;;
68945;Laerm;55984;48.790;8.990;2023-04-03T13:06:24;40.12;36.27;51.91;;
68945;Laerm;55984;48.790;8.990;2023-04-03T13:09:00;40.67;36.92;50.90;;
68945;Laerm;55984;48.790;8.990;2023-04-03T13:11:38;38.99;35.61;49.03;;
68945;Laerm;55984;48.790;8.990;2023-04-03T13:14:16;43.34;36.35;57.43;;
68945;Laerm;55984;48.790;8.990;2023-04-03T13:16:53;50.29;36.33;71.80;;
68945;Laerm;55984;48.790;8.990;2023-04-03T13:19:22;43.09;36.87;59.12;;
68945;Laerm;55984;48.790;8.990;2023-04-03T13:21:53;42.71;37.21;54.41;;
68945;Laerm;55984;48.790;8.990;2023-04-03T13:24:22;46.41;37.78;60.81;;
68945;Laerm;55984;48.790;8.990;2023-04-03T13:26:48;41.48;37.04;56.69;;
68945;Laerm;55984;48.790;8.990;2023-04-03T13:29:23;50.88;37.43;70.82;;
68945;Laerm;55984;48.790;8.990;2023-04-03T13:31:53;41.83;37.57;59.06;;
68945;Laerm;55984;48.790;8.990;2023-04-03T13:34:22;43.25;37.03;64.32;;
68945;Laerm;55984;48.790;8.990;2023-04-03T13:36:58;43.51;37.53;56.80;;
68945;Laerm;55984;48.790;8.990;2023-04-03T13:39:28;40.48;37.25;50.94;;
68945;Laerm;55984;48.790;8.990;2023-04-03T13:42:00;41.81;36.80;52.07;;
68945;Laerm;55984;48.790;8.990;2023-04-03T13:44:44;46.76;37.29;58.53;;
68945;Laerm;55984;48.790;8.990;2023-04-03T13:47:19;41.29;36.68;52.71;;
68945;Laerm;55984;48.790;8.990;2023-04-03T13:50:13;41.99;36.78;55.16;;
68945;Laerm;55984;48.790;8.990;2023-04-03T13:52:43;47.14;37.04;65.62;;
68945;Laerm;55984;48.790;8.990;2023-04-03T13:55:25;43.51;36.67;58.63;;
68945;Laerm;55984;48.790;8.990;2023-04-03T13:57:59;46.76;35.45;66.22;;
68945;Laerm;55984;48.790;8.990;2023-04-03T14:00:47;40.91;35.78;56.45;;
68945;Laerm;55984;48.790;8.990;2023-04-03T14:03:27;40.90;36.00;53.29;;
68945;Laerm;55984;48.790;8.990;2023-04-03T14:05:54;40.23;35.92;52.74;;
68945;Laerm;55984;48.790;8.990;2023-04-03T14:08:20;38.43;34.63;48.55;;
68945;Laerm;55984;48.790;8.990;2023-04-03T14:10:47;41.19;34.72;58.66;;
68945;Laerm;55984;48.790;8.990;2023-04-03T14:13:16;43.49;36.00;56.96;;
68945;Laerm;55984;48.790;8.990;2023-04-03T14:15:43;41.47;36.14;52.18;;
68945;Laerm;55984;48.790;8.990;2023-04-03T14:18:13;44.38;35.48;58.53;;
68945;Laerm;55984;48.790;8.990;2023-04-03T14:20:39;43.42;34.94;56.14;;
68945;Laerm;55984;48.790;8.990;2023-04-03T14:23:05;42.19;35.85;55.30;;
68945;Laerm;55984;48.790;8.990;2023-04-03T14:25:32;43.33;35.98;58.41;;
68945;Laerm;55984;48.790;8.990;2023-04-03T14:27:58;38.69;34.76;52.30;;
68945;Laerm;55984;48.790;8.990;2023-04-03T14:30:31;38.82;36.22;51.29;;
68945;Laerm;55984;48.790;8.990;2023-04-03T14:32:58;42.17;35.56;55.93;;
68945;Laerm;55984;48.790;8.990;2023-04-03T14:35:24;41.61;35.92;55.31;;
68945;Laerm;55984;48.790;8.990;2023-04-03T14:37:51;43.29;36.07;57.50;;
68945;Laerm;55984;48.790;8.990;2023-04-03T14:40:23;45.49;37.04;72.81;;
68945;Laerm;55984;48.790;8.990;2023-04-03T14:42:50;44.95;36.51;65.49;;
68945;Laerm;55984;48.790;8.990;2023-04-03T14:45:17;44.72;36.31;58.53;;
68945;Laerm;55984;48.790;8.990;2023-04-03T14:47:54;48.33;37.11;72.31;;
68945;Laerm;55984;48.790;8.990;2023-04-03T14:50:23;41.02;36.41;50.66;;
68945;Laerm;55984;48.790;8.990;2023-04-03T14:52:53;40.92;35.35;54.67;;
68945;Laerm;55984;48.790;8.990;2023-04-03T14:55:21;39.96;35.19;52.44;;
68945;Laerm;55984;48.790;8.990;2023-04-03T14:57:48;41.35;36.42;54.31;;
68945;Laerm;55984;48.790;8.990;2023-04-03T15:00:19;41.24;37.02;50.87;;
68945;Laerm;55984;48.790;8.990;2023-04-03T15:02:46;39.87;36.77;52.42;;
68945;Laerm;55984;48.790;8.990;2023-04-03T15:05:13;45.19;35.71;64.48;;
68945;Laerm;55984;48.790;8.990;2023-04-03T15:07:42;48.50;35.99;68.23;;
68945;Laerm;55984;48.790;8.990;2023-04-03T15:10:26;46.51;37.18;59.65;;
68945;Laerm;55984;48.790;8.990;2023-04-03T15:12:52;45.50;35.77;64.48;;
68945;Laerm;55984;48.790;8.990;2023-04-03T15:15:19;51.15;35.56;69.60;;
68945;Laerm;55984;48.790;8.990;2023-04-03T15:17:47;47.62;36.18;64.05;;
68945;Laerm;55984;48.790;8.990;2023-04-03T15:20:18;47.93;35.66;63.11;;
68945;Laerm;55984;48.790;8.990;2023-04-03T15:22:45;52.77;36.14;71.76;;
68945;Laerm;55984;48.790;8.990;2023-04-03T15:25:11;56.04;37.57;73.46;;
68945;Laerm;55984;48.790;8.990;2023-04-03T15:27:38;49.70;36.83;70.22;;
68945;Laerm;55984;48.790;8.990;2023-04-03T15:30:05;45.82;35.97;56.70;;
68945;Laerm;55984;48.790;8.990;2023-04-03T15:32:31;49.52;36.09;65.61;;
68945;Laerm;55984;48.790;8.990;2023-04-03T15:34:58;52.21;37.38;69.84;;